createdAt,value
2018-08-06T00:00:26.484Z,57.10
2018-08-06T00:02:55.302Z,56.70
2018-08-06T00:05:24.165Z,56.00
2018-08-06T00:07:53.088Z,56.10
2018-08-06T00:10:25.140Z,55.30
2018-08-06T00:12:54.037Z,55.20
2018-08-06T00:15:22.844Z,55.60
2018-08-06T00:17:51.764Z,57.00
2018-08-06T00:20:20.632Z,56.70
2018-08-06T00:22:49.454Z,57.30
2018-08-06T00:25:18.590Z,57.50
2018-08-06T00:27:47.641Z,57.10
2018-08-06T00:30:19.119Z,57.00
2018-08-06T00:32:48.851Z,57.20
2018-08-06T00:35:17.981Z,56.40
2018-08-06T00:37:46.834Z,56.40
2018-08-06T00:40:20.531Z,55.60
2018-08-06T00:42:49.675Z,56.00
2018-08-06T00:45:20.222Z,56.40
2018-08-06T00:47:49.528Z,56.70
2018-08-06T00:50:18.346Z,57.30
2018-08-06T00:52:47.282Z,57.30
2018-08-06T00:55:18.983Z,56.80
2018-08-06T00:57:48.834Z,57.00
2018-08-06T01:00:20.664Z,57.10
2018-08-06T01:02:49.536Z,57.90
2018-08-06T01:05:18.655Z,58.10
2018-08-06T01:07:47.512Z,57.30
2018-08-06T01:10:19.043Z,57.70
2018-08-06T01:12:47.954Z,58.60
2018-08-06T01:15:17.891Z,58.30
2018-08-06T01:17:46.793Z,58.20
2018-08-06T01:20:15.925Z,57.60
2018-08-06T01:22:45.519Z,57.60
2018-08-06T01:25:14.977Z,58.30
2018-08-06T01:27:43.804Z,58.00
2018-08-06T01:30:14.204Z,59.10
2018-08-06T01:32:43.357Z,58.80
2018-08-06T01:35:12.570Z,58.20
2018-08-06T01:37:41.465Z,58.70
2018-08-06T01:40:12.804Z,58.90
2018-08-06T01:42:42.104Z,59.70
2018-08-06T01:45:13.072Z,59.10
2018-08-06T01:47:41.882Z,59.10
2018-08-06T01:52:39.850Z,59.30
2018-08-06T01:55:08.663Z,60.10
2018-08-06T01:57:37.643Z,59.90
2018-08-06T02:00:09.849Z,60.60
2018-08-06T02:02:38.707Z,60.60
2018-08-06T02:05:08.221Z,60.60
2018-08-06T02:07:37.317Z,60.50
2018-08-06T02:10:08.322Z,60.50
2018-08-06T02:12:37.141Z,61.20
2018-08-06T02:15:07.100Z,60.70
2018-08-06T02:17:36.196Z,60.30
2018-08-06T02:20:06.808Z,60.80
2018-08-06T02:22:35.808Z,60.10
2018-08-06T02:25:06.010Z,61.10
2018-08-06T02:27:34.843Z,60.90
2018-08-06T02:30:03.724Z,63.20
2018-08-06T02:32:32.810Z,60.70
2018-08-06T02:35:01.987Z,60.40
2018-08-06T02:37:30.810Z,61.00
2018-08-06T02:39:59.710Z,60.90
2018-08-06T02:42:28.541Z,61.30
2018-08-06T02:44:57.373Z,61.20
2018-08-06T02:47:26.227Z,62.40
2018-08-06T02:49:55.051Z,60.60
2018-08-06T02:52:23.893Z,60.30
2018-08-06T02:54:52.736Z,60.20
2018-08-06T02:57:21.585Z,59.90
2018-08-06T02:59:50.476Z,60.10
2018-08-06T03:02:19.364Z,61.50
2018-08-06T03:04:48.187Z,60.10
2018-08-06T03:09:45.493Z,60.60
2018-08-06T03:12:14.307Z,60.20
2018-08-06T03:14:43.131Z,61.50
2018-08-06T03:17:12.032Z,61.50
2018-08-06T03:19:40.837Z,62.50
2018-08-06T03:22:09.656Z,60.70
2018-08-06T03:24:38.526Z,60.90
2018-08-06T03:29:35.773Z,60.00
2018-08-06T03:32:04.650Z,60.20
2018-08-06T03:34:33.480Z,61.50
2018-08-06T03:37:02.321Z,62.30
2018-08-06T03:39:31.175Z,62.80
2018-08-06T03:41:59.989Z,60.60
2018-08-06T03:44:28.821Z,59.60
2018-08-06T03:46:57.745Z,61.50
2018-08-06T03:49:26.560Z,59.80
2018-08-06T03:51:55.383Z,59.40
2018-08-06T03:54:24.258Z,60.50
2018-08-06T03:56:53.095Z,60.10
2018-08-06T03:59:21.920Z,59.90
2018-08-06T04:01:50.849Z,62.60
2018-08-06T04:04:19.720Z,62.00
2018-08-06T04:06:48.531Z,59.80
2018-08-06T04:09:17.400Z,60.90
2018-08-06T04:11:46.237Z,60.30
2018-08-06T04:14:15.042Z,59.30
2018-08-06T04:16:44.713Z,59.40
2018-08-06T04:19:14.541Z,59.60
2018-08-06T04:21:43.378Z,59.90
2018-08-06T04:24:12.212Z,59.50
2018-08-06T04:26:41.378Z,59.60
2018-08-06T04:29:10.405Z,59.50
2018-08-06T04:31:39.223Z,59.80
2018-08-06T04:34:08.074Z,60.00
2018-08-06T04:36:37.020Z,60.00
2018-08-06T04:41:35.608Z,60.70
2018-08-06T04:44:04.528Z,59.70
2018-08-06T04:46:33.391Z,59.10
2018-08-06T04:49:02.232Z,60.50
2018-08-06T04:51:31.144Z,60.90
2018-08-06T04:54:00.009Z,59.40
2018-08-06T04:58:57.385Z,58.20
2018-08-06T05:01:26.212Z,57.60
2018-08-06T05:03:55.655Z,57.90
2018-08-06T05:06:24.527Z,57.80
2018-08-06T05:08:53.483Z,57.70
2018-08-06T05:11:22.293Z,57.60
2018-08-06T05:13:51.142Z,57.30
2018-08-06T05:16:20.047Z,57.20
2018-08-06T05:18:48.872Z,57.10
2018-08-06T05:21:17.896Z,56.40
2018-08-06T05:23:56.588Z,56.30
2018-08-06T05:26:26.827Z,56.50
2018-08-06T05:28:55.698Z,56.40
2018-08-06T05:31:25.595Z,55.80
2018-08-06T05:33:55.049Z,55.90
2018-08-06T05:36:24.406Z,56.10
2018-08-06T05:38:54.890Z,56.50
2018-08-06T05:41:25.879Z,56.20
2018-08-06T05:43:56.359Z,55.80
2018-08-06T05:46:25.565Z,55.60
2018-08-06T05:48:54.688Z,56.40
2018-08-06T05:51:23.520Z,56.10
2018-08-06T05:53:52.400Z,56.30
2018-08-06T05:56:21.207Z,56.30
2018-08-06T05:58:50.222Z,56.20
2018-08-06T06:01:19.098Z,56.40
2018-08-06T06:03:47.928Z,56.40
2018-08-06T06:08:45.195Z,56.30
2018-08-06T06:11:14.037Z,55.50
2018-08-06T06:13:42.872Z,55.60
2018-08-06T06:16:11.760Z,55.20
2018-08-06T06:18:40.604Z,54.80
2018-08-06T06:21:09.445Z,55.00
2018-08-06T06:23:38.404Z,54.80
2018-08-06T06:26:07.219Z,55.00
2018-08-06T06:28:36.112Z,55.00
2018-08-06T06:31:05.018Z,54.80
2018-08-06T06:33:33.848Z,55.10
2018-08-06T06:38:31.227Z,55.20
2018-08-06T06:41:00.066Z,55.30
2018-08-06T06:43:28.940Z,55.30
2018-08-06T06:45:57.815Z,55.10
2018-08-06T06:48:26.816Z,54.90
2018-08-06T06:50:55.672Z,54.90
2018-08-06T06:53:24.495Z,54.60
2018-08-06T06:55:53.397Z,54.70
2018-08-06T06:58:22.232Z,54.80
2018-08-06T07:00:51.044Z,54.80
2018-08-06T07:03:19.900Z,54.70
2018-08-06T07:05:49.301Z,54.40
2018-08-06T07:08:18.265Z,54.60
2018-08-06T07:10:48.256Z,54.60
2018-08-06T07:13:17.176Z,54.70
2018-08-06T07:15:46.077Z,54.80
2018-08-06T07:18:14.891Z,54.80
2018-08-06T07:20:43.877Z,54.90
2018-08-06T07:23:12.896Z,54.90
2018-08-06T07:25:41.737Z,54.90
2018-08-06T07:28:10.670Z,54.70
2018-08-06T07:30:39.531Z,54.70
2018-08-06T07:33:09.075Z,54.50
2018-08-06T07:35:37.879Z,54.50
2018-08-06T07:38:06.848Z,54.30
2018-08-06T07:40:35.697Z,54.30
2018-08-06T07:43:04.744Z,54.20
2018-08-06T07:45:33.660Z,54.20
2018-08-06T07:48:02.532Z,54.40
2018-08-06T07:50:31.471Z,54.30
2018-08-06T07:53:00.289Z,54.00
2018-08-06T07:55:29.131Z,54.10
2018-08-06T07:57:58.117Z,54.60
2018-08-06T08:00:26.962Z,54.40
2018-08-06T08:02:55.811Z,54.10
2018-08-06T08:05:24.764Z,54.00
2018-08-06T08:07:53.679Z,54.00
2018-08-06T08:10:23.732Z,54.10
2018-08-06T08:12:53.254Z,54.10
2018-08-06T08:15:24.420Z,54.60
2018-08-06T08:17:53.591Z,53.80
2018-08-06T08:20:22.586Z,53.70
2018-08-06T08:22:51.397Z,53.60
2018-08-06T08:30:19.799Z,53.20
2018-08-06T08:32:48.639Z,53.00
2018-08-06T08:35:17.750Z,53.00
2018-08-06T08:37:46.660Z,53.20
2018-08-06T08:40:18.026Z,53.10
2018-08-06T08:42:46.853Z,53.10
2018-08-06T08:45:17.078Z,53.10
2018-08-06T08:47:46.533Z,53.00
2018-08-06T08:50:18.550Z,52.70
2018-08-06T08:52:47.407Z,52.40
2018-08-06T08:55:17.764Z,52.10
2018-08-06T08:57:46.965Z,52.20
2018-08-06T09:00:18.379Z,52.10
2018-08-06T09:02:48.227Z,52.60
2018-08-06T09:05:17.656Z,51.90
2018-08-06T09:07:46.975Z,51.50
2018-08-06T09:10:16.671Z,51.50
2018-08-06T09:12:46.458Z,51.20
2018-08-06T09:15:17.457Z,51.20
2018-08-06T09:17:46.377Z,51.20
2018-08-06T09:20:15.275Z,51.90
2018-08-06T09:22:44.935Z,51.30
2018-08-06T09:25:14.806Z,51.30
2018-08-06T09:27:45.391Z,51.40
2018-08-06T09:30:16.469Z,51.40
2018-08-06T09:32:46.479Z,51.40
2018-08-06T09:35:16.093Z,51.40
2018-08-06T09:42:45.157Z,50.60
2018-08-06T09:45:16.159Z,50.90
2018-08-06T09:47:47.046Z,50.80
2018-08-06T09:50:16.598Z,50.80
2018-08-06T09:52:46.999Z,50.80
2018-08-06T09:55:19.296Z,50.80
2018-08-06T09:57:48.872Z,50.60
2018-08-06T10:00:24.451Z,50.50
2018-08-06T10:02:54.128Z,50.70
2018-08-06T10:05:23.914Z,50.20
2018-08-06T10:07:52.789Z,50.20
2018-08-06T10:10:21.652Z,50.40
2018-08-06T10:12:50.556Z,50.30
2018-08-06T10:15:19.888Z,50.70
2018-08-06T10:17:51.393Z,50.50
2018-08-06T10:20:21.768Z,50.30
2018-08-06T10:22:50.619Z,50.20
2018-08-06T10:25:19.509Z,50.10
2018-08-06T10:27:48.611Z,50.40
2018-08-06T10:30:21.145Z,50.40
2018-08-06T10:32:49.971Z,50.40
2018-08-06T10:35:19.664Z,50.40
2018-08-06T10:37:48.644Z,50.20
2018-08-06T10:40:19.940Z,49.90
2018-08-06T10:42:48.996Z,49.60
2018-08-06T10:45:20.255Z,49.60
2018-08-06T10:47:49.815Z,49.50
2018-08-06T10:50:18.905Z,49.60
2018-08-06T10:52:47.994Z,49.80
2018-08-06T10:55:16.896Z,49.70
2018-08-06T10:57:46.360Z,49.60
2018-08-06T11:00:17.788Z,49.50
2018-08-06T11:02:46.973Z,48.90
2018-08-06T11:05:16.552Z,48.80
2018-08-06T11:07:46.131Z,48.70
2018-08-06T11:10:16.468Z,48.30
2018-08-06T11:12:45.331Z,48.30
2018-08-06T11:15:24.704Z,48.20
2018-08-06T11:17:53.633Z,47.60
2018-08-06T11:20:23.106Z,47.60
2018-08-06T11:25:22.040Z,47.80
2018-08-06T11:27:50.927Z,47.90
2018-08-06T11:32:49.988Z,48.20
2018-08-06T11:35:18.947Z,48.30
2018-08-06T11:37:47.914Z,48.30
2018-08-06T11:40:17.396Z,48.40
2018-08-06T11:42:47.003Z,48.40
2018-08-06T11:45:18.439Z,48.40
2018-08-06T11:50:16.808Z,48.30
2018-08-06T11:52:45.765Z,48.10
2018-08-06T11:55:14.634Z,47.70
2018-08-06T11:57:43.524Z,47.40
2018-08-06T12:00:18.046Z,47.60
2018-08-06T12:02:47.072Z,47.90
2018-08-06T12:05:15.977Z,47.80
2018-08-06T12:07:45.080Z,48.00
2018-08-06T12:10:16.783Z,48.00
2018-08-06T12:12:46.885Z,48.00
2018-08-06T12:15:15.948Z,47.70
2018-08-06T12:17:45.439Z,47.60
2018-08-06T12:20:16.790Z,47.70
2018-08-06T12:22:47.024Z,47.80
2018-08-06T12:25:16.751Z,48.00
2018-08-06T12:27:46.369Z,47.60
2018-08-06T12:30:18.461Z,47.70
2018-08-06T12:32:47.992Z,47.40
2018-08-06T12:35:17.404Z,47.10
2018-08-06T12:37:47.257Z,47.30
2018-08-06T12:40:17.449Z,47.00
2018-08-06T12:42:46.316Z,46.80
2018-08-06T12:45:16.924Z,46.80
2018-08-06T12:47:46.288Z,46.90
2018-08-06T12:50:16.147Z,46.90
2018-08-06T12:52:45.296Z,46.80
2018-08-06T12:55:15.525Z,47.10
2018-08-06T12:57:44.976Z,47.20
2018-08-06T13:00:24.575Z,47.00
2018-08-06T13:02:54.035Z,47.30
2018-08-06T13:05:23.609Z,47.30
2018-08-06T13:07:52.804Z,47.30
2018-08-06T13:10:21.686Z,47.30
2018-08-06T13:12:50.533Z,47.50
2018-08-06T13:15:19.391Z,47.40
2018-08-06T13:17:48.760Z,47.50
2018-08-06T13:20:18.039Z,47.50
2018-08-06T13:22:46.884Z,47.40
2018-08-06T13:25:15.771Z,47.20
2018-08-06T13:27:44.836Z,47.10
2018-08-06T13:30:15.177Z,47.30
2018-08-06T13:32:44.864Z,47.40
2018-08-06T13:35:14.640Z,47.40
2018-08-06T13:37:43.512Z,47.60
2018-08-06T13:40:12.723Z,48.00
2018-08-06T13:42:41.679Z,48.20
2018-08-06T13:45:13.081Z,48.60
2018-08-06T13:47:42.476Z,48.40
2018-08-06T13:50:13.474Z,48.40
2018-08-06T13:52:42.467Z,48.70
2018-08-06T13:55:12.637Z,48.50
2018-08-06T13:57:42.817Z,48.30
2018-08-06T14:00:16.331Z,48.40
2018-08-06T14:02:45.232Z,48.60
2018-08-06T14:05:15.165Z,48.30
2018-08-06T14:07:46.959Z,48.20
2018-08-06T14:12:46.345Z,47.90
2018-08-06T14:15:15.236Z,47.90
2018-08-06T14:17:44.404Z,47.90
2018-08-06T14:20:15.129Z,47.50
2018-08-06T14:22:43.944Z,47.40
2018-08-06T14:25:13.232Z,47.10
2018-08-06T14:27:42.077Z,47.20
2018-08-06T14:30:13.185Z,47.10
2018-08-06T14:32:42.520Z,46.80
2018-08-06T14:35:12.426Z,46.80
2018-08-06T14:37:41.359Z,47.60
2018-08-06T14:40:13.801Z,48.10
2018-08-06T14:42:42.977Z,48.10
2018-08-06T14:45:14.356Z,48.00
2018-08-06T14:47:43.208Z,48.10
2018-08-06T14:50:14.544Z,48.10
2018-08-06T14:52:44.298Z,48.00
2018-08-06T14:55:13.195Z,48.00
2018-08-06T14:57:42.557Z,47.90
2018-08-06T15:00:15.331Z,48.00
2018-08-06T15:02:44.289Z,48.20
2018-08-06T15:05:13.127Z,48.30
2018-08-06T15:07:41.977Z,48.40
2018-08-06T15:10:12.221Z,48.20
2018-08-06T15:12:41.387Z,48.20
2018-08-06T15:15:13.502Z,48.50
2018-08-06T15:17:43.889Z,48.50
2018-08-06T15:20:14.364Z,48.60
2018-08-06T15:22:43.264Z,48.80
2018-08-06T15:25:14.733Z,48.60
2018-08-06T15:27:43.778Z,48.50
2018-08-06T15:30:13.001Z,48.40
2018-08-06T15:32:41.948Z,48.40
2018-08-06T15:35:11.679Z,48.60
2018-08-06T15:37:41.718Z,48.70
2018-08-06T15:40:15.700Z,48.80
2018-08-06T15:42:44.695Z,48.90
2018-08-06T15:45:14.115Z,48.80
2018-08-06T15:47:43.730Z,48.90
2018-08-06T15:50:15.963Z,48.90
2018-08-06T15:52:44.812Z,48.90
2018-08-06T15:55:13.719Z,49.00
2018-08-06T15:57:42.648Z,49.00
2018-08-06T16:00:13.906Z,49.00
2018-08-06T16:02:43.087Z,49.10
2018-08-06T16:05:13.179Z,49.00
2018-08-06T16:07:42.059Z,49.00
2018-08-06T16:10:11.912Z,49.00
2018-08-06T16:15:11.544Z,49.10
2018-08-06T16:17:41.127Z,48.90
2018-08-06T16:20:12.345Z,49.00
2018-08-06T16:22:41.567Z,49.20
2018-08-06T16:25:11.211Z,49.30
2018-08-06T16:27:40.096Z,49.10
2018-08-06T16:30:16.703Z,49.00
2018-08-06T16:32:46.828Z,48.90
2018-08-06T16:35:16.804Z,48.90
2018-08-06T16:37:46.000Z,49.30
2018-08-06T16:40:15.792Z,49.10
2018-08-06T16:42:45.110Z,48.90
2018-08-06T16:45:13.948Z,48.70
2018-08-06T16:47:42.822Z,48.70
2018-08-06T16:50:14.173Z,48.60
2018-08-06T16:52:43.165Z,48.60
2018-08-06T16:55:12.169Z,48.40
2018-08-06T16:57:41.373Z,48.30
2018-08-06T17:00:12.700Z,48.50
2018-08-06T17:02:41.606Z,48.60
2018-08-06T17:05:12.158Z,48.50
2018-08-06T17:10:12.440Z,48.60
2018-08-06T17:12:42.268Z,48.70
2018-08-06T17:15:12.685Z,48.90
2018-08-06T17:17:41.785Z,49.10
2018-08-06T17:20:13.912Z,49.20
2018-08-06T17:22:43.636Z,49.60
2018-08-06T17:25:13.042Z,49.50
2018-08-06T17:27:42.344Z,49.70
2018-08-06T17:30:12.148Z,49.70
2018-08-06T17:32:41.032Z,49.70
2018-08-06T17:35:11.597Z,49.90
2018-08-06T17:37:40.483Z,50.30
2018-08-06T17:40:12.645Z,50.30
2018-08-06T17:42:41.663Z,50.90
2018-08-06T17:45:25.196Z,51.30
2018-08-06T17:50:23.377Z,51.80
2018-08-06T17:52:53.241Z,52.00
2018-08-06T17:55:23.007Z,52.00
2018-08-06T17:57:51.860Z,52.20
2018-08-06T18:00:21.144Z,52.00
2018-08-06T18:02:50.123Z,52.30
2018-08-06T18:05:19.412Z,52.40
2018-08-06T18:07:48.239Z,52.20
2018-08-06T18:10:18.075Z,52.20
2018-08-06T18:12:47.656Z,52.20
2018-08-06T18:15:16.632Z,52.40
2018-08-06T18:17:45.477Z,52.60
2018-08-06T18:20:16.088Z,52.50
2018-08-06T18:25:16.005Z,52.50
2018-08-06T18:27:47.015Z,52.50
2018-08-06T18:30:18.819Z,52.60
2018-08-06T18:32:47.701Z,52.50
2018-08-06T18:35:17.625Z,52.50
2018-08-06T18:37:46.616Z,52.50
2018-08-06T18:40:16.548Z,52.50
2018-08-06T18:42:45.408Z,52.50
2018-08-06T18:45:16.485Z,52.50
2018-08-06T18:47:46.371Z,52.50
2018-08-06T18:50:16.177Z,52.50
2018-08-06T18:52:46.041Z,52.50
2018-08-06T18:55:15.591Z,52.50
2018-08-06T18:57:45.208Z,52.40
2018-08-06T19:00:17.783Z,52.50
2018-08-06T19:02:46.768Z,52.50
2018-08-06T19:05:15.730Z,52.90
2018-08-06T19:07:44.666Z,52.90
2018-08-06T19:10:13.699Z,53.00
2018-08-06T19:12:47.843Z,52.90
2018-08-06T19:15:16.754Z,52.70
2018-08-06T19:17:50.945Z,52.80
2018-08-06T19:20:19.818Z,52.90
2018-08-06T19:22:48.668Z,52.90
2018-08-06T19:27:51.287Z,53.10
2018-08-06T19:30:20.144Z,53.10
2018-08-06T19:32:48.994Z,52.90
2018-08-06T19:35:17.856Z,52.70
2018-08-06T19:37:48.177Z,52.00
2018-08-06T19:42:57.101Z,53.90
2018-08-06T19:45:25.960Z,54.40
2018-08-06T19:47:54.817Z,54.70
2018-08-06T19:52:57.444Z,55.10
2018-08-06T19:55:31.557Z,55.60
2018-08-06T19:58:00.401Z,55.80
2018-08-06T20:00:29.241Z,55.90
2018-08-06T20:02:58.172Z,56.30
2018-08-06T20:05:26.996Z,56.90
2018-08-06T20:07:55.820Z,57.50
2018-08-06T20:10:24.752Z,57.60
2018-08-06T20:12:53.597Z,57.50
2018-08-06T20:15:22.429Z,57.90
2018-08-06T20:17:51.363Z,58.50
2018-08-06T20:20:20.233Z,58.30
2018-08-06T20:22:49.059Z,58.80
2018-08-06T20:25:21.060Z,59.00
2018-08-06T20:27:50.642Z,59.20
2018-08-06T20:30:21.517Z,59.20
2018-08-06T20:32:50.424Z,60.10
2018-08-06T20:35:19.914Z,59.30
2018-08-06T20:37:48.789Z,59.90
2018-08-06T20:40:17.612Z,59.80
2018-08-06T20:42:46.887Z,60.40
2018-08-06T20:45:17.976Z,60.40
2018-08-06T20:47:46.863Z,60.80
2018-08-06T20:50:17.709Z,60.90
2018-08-06T20:52:47.575Z,61.40
2018-08-06T20:55:16.404Z,61.10
2018-08-06T20:57:45.623Z,61.40
2018-08-06T21:00:17.112Z,61.00
2018-08-06T21:02:46.792Z,60.90
2018-08-06T21:05:15.674Z,61.70
2018-08-06T21:07:44.542Z,61.80
2018-08-06T21:10:14.995Z,61.60
2018-08-06T21:12:43.889Z,63.00
2018-08-06T21:15:13.887Z,61.80
2018-08-06T21:17:42.960Z,61.60
2018-08-06T21:20:15.334Z,61.70
2018-08-06T21:22:45.423Z,62.10
2018-08-06T21:25:14.581Z,64.90
2018-08-06T21:27:44.600Z,61.80
2018-08-06T21:30:15.493Z,61.60
2018-08-06T21:32:49.761Z,61.80
2018-08-06T21:35:19.628Z,62.80
2018-08-06T21:37:49.804Z,63.50
2018-08-06T21:40:19.521Z,62.70
2018-08-06T21:42:49.027Z,63.30
2018-08-06T21:45:17.988Z,63.20
2018-08-06T21:47:46.927Z,64.30
2018-08-06T21:50:16.016Z,63.60
2018-08-06T21:52:45.221Z,64.40
2018-08-06T21:55:14.123Z,64.10
2018-08-06T21:57:43.024Z,64.10
2018-08-06T22:00:42.764Z,64.50
2018-08-06T22:03:15.913Z,64.40
2018-08-06T22:05:45.364Z,64.70
2018-08-06T22:08:14.212Z,64.70
2018-08-06T22:10:43.098Z,65.10
2018-08-06T22:13:12.248Z,64.20
2018-08-06T22:15:41.224Z,65.00
2018-08-06T22:18:11.845Z,64.50
2018-08-06T22:20:41.080Z,64.50
2018-08-06T22:25:38.367Z,64.60
2018-08-06T22:28:10.273Z,64.50
2018-08-06T22:30:39.093Z,64.50
2018-08-06T22:33:07.944Z,64.20
2018-08-06T22:35:36.828Z,64.80
2018-08-06T22:38:05.652Z,65.80
2018-08-06T22:40:34.480Z,65.40
2018-08-06T22:43:03.352Z,65.60
2018-08-06T22:45:32.182Z,65.70
2018-08-06T22:48:01.002Z,65.70
2018-08-06T22:50:29.888Z,66.40
2018-08-06T22:52:58.709Z,65.20
2018-08-06T22:55:27.542Z,64.80
2018-08-06T22:57:56.401Z,65.80
2018-08-06T23:00:25.266Z,65.20
2018-08-06T23:02:54.091Z,66.20
2018-08-06T23:05:22.964Z,65.20
2018-08-06T23:07:51.795Z,65.50
2018-08-06T23:10:20.631Z,65.40
2018-08-06T23:12:49.534Z,65.80
2018-08-06T23:15:18.384Z,65.90
2018-08-06T23:17:47.232Z,66.60
2018-08-06T23:20:16.175Z,66.60
2018-08-06T23:22:45.013Z,66.10
2018-08-06T23:25:13.861Z,66.60
2018-08-06T23:27:42.739Z,66.00
2018-08-06T23:30:15.643Z,66.70
2018-08-06T23:32:44.516Z,66.40
2018-08-06T23:35:14.254Z,65.80
2018-08-06T23:37:44.329Z,65.30
2018-08-06T23:40:13.982Z,66.20
2018-08-06T23:42:43.111Z,65.80
2018-08-06T23:45:13.481Z,65.80
2018-08-06T23:47:42.329Z,66.20
2018-08-06T23:50:13.204Z,66.50
2018-08-06T23:52:44.664Z,67.00
2018-08-06T23:55:15.216Z,67.10
2018-08-06T23:57:44.035Z,66.90
